createdAt,value
2023-01-15T00:02:44.427Z,8.08
2023-01-15T00:06:45.842Z,8.20
2023-01-15T00:10:47.321Z,8.55
2023-01-15T00:14:50.065Z,8.57
2023-01-15T00:18:52.744Z,8.60
2023-01-15T00:22:54.314Z,8.80
2023-01-15T00:26:55.727Z,9.00
2023-01-15T00:30:58.540Z,9.07
2023-01-15T00:35:00.327Z,9.08
2023-01-15T00:39:01.739Z,9.14
2023-01-15T00:43:03.193Z,9.17
2023-01-15T00:47:05.947Z,9.04
2023-01-15T00:51:07.455Z,8.98
2023-01-15T00:55:09.391Z,9.14
2023-01-15T00:59:11.050Z,9.08
2023-01-15T01:03:13.792Z,9.14
2023-01-15T01:07:15.371Z,9.20
2023-01-15T01:11:18.930Z,9.32
2023-01-15T01:15:20.758Z,9.30
2023-01-15T01:19:25.427Z,9.46
2023-01-15T01:23:26.809Z,9.26
2023-01-15T01:27:28.231Z,9.33
2023-01-15T01:31:29.970Z,9.41
2023-01-15T01:35:33.363Z,9.47
2023-01-15T01:39:34.790Z,9.46
2023-01-15T01:43:52.757Z,9.58
2023-01-15T01:47:55.992Z,9.52
2023-01-15T01:52:03.159Z,9.57
2023-01-15T01:56:08.417Z,9.57
2023-01-15T02:00:11.015Z,9.56
2023-01-15T02:04:13.878Z,9.63
2023-01-15T02:08:16.605Z,9.61
2023-01-15T02:12:24.864Z,9.63
2023-01-15T02:16:32.892Z,9.72
2023-01-15T02:20:39.528Z,9.64
2023-01-15T02:24:59.451Z,9.70
2023-01-15T02:29:05.752Z,9.77
2023-01-15T02:33:12.693Z,9.72
2023-01-15T02:37:20.555Z,9.71
2023-01-15T02:41:28.645Z,9.79
2023-01-15T02:45:34.910Z,9.80
2023-01-15T02:49:39.372Z,9.68
2023-01-15T02:53:44.427Z,9.81
2023-01-15T02:57:48.745Z,9.75
2023-01-15T03:01:56.301Z,9.78
2023-01-15T03:06:01.951Z,9.69
2023-01-15T03:10:05.621Z,9.72
2023-01-15T03:14:12.821Z,9.78
2023-01-15T03:18:19.898Z,9.79
2023-01-15T03:22:26.089Z,9.84
2023-01-15T03:26:27.591Z,9.95
2023-01-15T03:30:29.481Z,9.97
2023-01-15T03:34:37.876Z,10.03
2023-01-15T03:38:40.691Z,9.98
2023-01-15T03:42:50.258Z,10.02
2023-01-15T03:47:02.321Z,10.00
2023-01-15T03:51:11.529Z,10.03
2023-01-15T03:55:17.079Z,9.97
2023-01-15T03:59:23.017Z,9.76
2023-01-15T04:03:25.978Z,9.35
2023-01-15T04:07:28.807Z,9.40
2023-01-15T04:11:30.345Z,9.21
2023-01-15T04:15:31.894Z,9.20
2023-01-15T04:19:33.399Z,9.20
2023-01-15T04:23:36.111Z,9.21
2023-01-15T04:27:37.544Z,9.28
2023-01-15T04:31:38.938Z,9.30
2023-01-15T04:35:40.363Z,9.12
2023-01-15T04:39:43.139Z,9.15
2023-01-15T04:43:44.687Z,9.24
2023-01-15T04:47:46.093Z,9.21
2023-01-15T04:51:47.673Z,9.31
2023-01-15T04:55:50.400Z,9.46
2023-01-15T04:59:51.822Z,9.37
2023-01-15T05:03:53.355Z,9.46
2023-01-15T05:07:54.742Z,9.64
2023-01-15T05:11:57.659Z,9.67
2023-01-15T05:16:08.366Z,9.78
2023-01-15T05:20:11.077Z,9.72
2023-01-15T05:24:14.916Z,9.84
2023-01-15T05:28:17.660Z,9.84
2023-01-15T05:32:19.140Z,9.85
2023-01-15T05:36:23.513Z,9.92
2023-01-15T05:40:24.941Z,9.94
2023-01-15T05:44:29.518Z,10.02
2023-01-15T05:48:30.901Z,10.01
2023-01-15T05:52:32.337Z,10.08
2023-01-15T05:56:35.315Z,10.01
2023-01-15T06:00:38.040Z,10.21
2023-01-15T06:04:39.460Z,10.21
2023-01-15T06:08:41.078Z,10.12
2023-01-15T06:12:42.498Z,10.20
2023-01-15T06:16:45.417Z,10.20
2023-01-15T06:20:46.803Z,10.25
2023-01-15T06:24:48.212Z,9.74
2023-01-15T06:28:49.605Z,8.47
2023-01-15T06:32:52.320Z,8.07
2023-01-15T06:36:53.759Z,6.50
2023-01-15T06:40:55.149Z,5.19
2023-01-15T06:44:56.551Z,5.02
2023-01-15T06:48:59.280Z,4.85
2023-01-15T06:53:00.714Z,4.59
2023-01-15T06:57:02.214Z,4.35
2023-01-15T07:01:08.564Z,4.29
2023-01-15T07:05:11.336Z,4.30
2023-01-15T07:09:12.910Z,4.22
2023-01-15T07:13:14.290Z,4.15
2023-01-15T07:17:15.782Z,4.14
2023-01-15T07:21:18.842Z,4.06
2023-01-15T07:25:20.252Z,4.09
2023-01-15T07:29:21.892Z,4.09
2023-01-15T07:33:23.264Z,4.07
2023-01-15T07:37:28.526Z,3.99
2023-01-15T07:41:30.078Z,4.03
2023-01-15T07:45:31.627Z,3.99
2023-01-15T07:49:33.086Z,4.08
2023-01-15T07:53:35.875Z,3.97
2023-01-15T07:57:37.604Z,3.83
2023-01-15T08:01:39.075Z,3.75
2023-01-15T08:05:40.539Z,3.74
2023-01-15T08:09:49.827Z,3.64
2023-01-15T08:13:54.422Z,3.76
2023-01-15T08:17:55.836Z,3.72
2023-01-15T08:21:57.259Z,3.63
2023-01-15T08:26:00.593Z,3.57
2023-01-15T08:30:02.336Z,3.61
2023-01-15T08:34:03.744Z,3.58
2023-01-15T08:38:05.790Z,3.70
2023-01-15T08:42:08.557Z,3.68
2023-01-15T08:46:10.068Z,3.64
2023-01-15T08:50:11.826Z,3.84
2023-01-15T08:54:13.249Z,3.77
2023-01-15T08:58:16.741Z,3.77
2023-01-15T09:02:18.187Z,3.81
2023-01-15T09:06:19.599Z,3.81
2023-01-15T09:10:21.367Z,3.74
2023-01-15T09:14:57.836Z,3.71
2023-01-15T09:18:45.706Z,3.77
2023-01-15T09:22:47.233Z,3.84
2023-01-15T09:26:48.660Z,3.94
2023-01-15T09:30:51.575Z,4.03
2023-01-15T09:34:53.064Z,3.99
2023-01-15T09:38:54.627Z,4.03
2023-01-15T09:43:02.731Z,4.04
2023-01-15T09:47:11.297Z,4.12
2023-01-15T09:51:23.080Z,4.13
2023-01-15T09:55:27.251Z,4.17
2023-01-15T09:59:34.935Z,3.96
2023-01-15T10:03:43.489Z,4.09
2023-01-15T10:07:53.208Z,4.11
2023-01-15T10:11:58.874Z,4.14
2023-01-15T10:16:00.929Z,4.29
2023-01-15T10:20:04.350Z,4.35
2023-01-15T10:24:13.499Z,4.38
2023-01-15T10:28:22.566Z,4.39
2023-01-15T10:32:35.649Z,4.54
2023-01-15T10:36:42.239Z,4.45
2023-01-15T10:40:59.769Z,4.47
2023-01-15T10:45:11.543Z,4.52
2023-01-15T10:49:15.454Z,4.48
2023-01-15T10:53:29.272Z,4.52
2023-01-15T10:57:42.449Z,4.35
2023-01-15T11:01:44.057Z,4.35
2023-01-15T11:05:45.628Z,4.34
2023-01-15T11:09:48.450Z,4.29
2023-01-15T11:13:54.172Z,4.41
2023-01-15T11:17:55.642Z,4.33
2023-01-15T11:21:57.131Z,4.36
2023-01-15T11:26:00.488Z,4.45
2023-01-15T11:30:06.078Z,4.33
2023-01-15T11:34:21.588Z,4.34
2023-01-15T11:38:23.829Z,4.44
2023-01-15T11:42:26.559Z,4.47
2023-01-15T11:46:30.955Z,4.59
2023-01-15T11:50:32.404Z,4.67
2023-01-15T11:54:38.904Z,4.78
2023-01-15T11:58:46.251Z,4.79
2023-01-15T12:02:50.848Z,4.77
2023-01-15T12:06:52.426Z,4.81
2023-01-15T12:11:08.907Z,4.80
2023-01-15T12:15:33.021Z,4.88
2023-01-15T12:19:42.733Z,4.87
2023-01-15T12:24:10.698Z,4.82
2023-01-15T12:28:15.859Z,4.91
2023-01-15T12:32:22.542Z,4.97
2023-01-15T12:36:28.850Z,5.06
2023-01-15T12:40:40.458Z,5.06
2023-01-15T12:44:47.256Z,5.18
2023-01-15T12:48:55.276Z,5.31
2023-01-15T12:53:01.213Z,5.29
2023-01-15T12:57:09.692Z,5.30
2023-01-15T13:01:17.882Z,5.38
2023-01-15T13:05:27.096Z,5.32
2023-01-15T13:09:38.036Z,5.25
2023-01-15T13:13:41.984Z,5.37
2023-01-15T13:17:59.621Z,5.42
2023-01-15T13:22:08.986Z,5.42
2023-01-15T13:26:24.962Z,5.40
2023-01-15T13:30:47.726Z,5.39
2023-01-15T13:34:52.743Z,5.38
2023-01-15T13:38:58.654Z,5.41
2023-01-15T13:43:01.349Z,5.41
2023-01-15T13:47:05.807Z,5.40
2023-01-15T13:51:23.706Z,5.22
2023-01-15T13:55:31.056Z,5.08
2023-01-15T13:59:42.570Z,5.11
2023-01-15T14:03:58.070Z,5.14
2023-01-15T14:08:00.671Z,5.08
2023-01-15T14:12:14.208Z,5.14
2023-01-15T14:16:27.452Z,5.04
2023-01-15T14:20:38.867Z,4.91
2023-01-15T14:25:01.883Z,4.78
2023-01-15T14:29:28.007Z,4.78
2023-01-15T14:33:42.005Z,4.73
2023-01-15T14:37:48.399Z,4.58
2023-01-15T14:41:57.092Z,4.46
2023-01-15T14:46:12.617Z,4.31
2023-01-15T14:50:29.898Z,4.36
2023-01-15T14:54:32.951Z,4.23
2023-01-15T14:58:45.796Z,4.23
2023-01-15T15:02:49.328Z,4.24
2023-01-15T15:06:54.177Z,4.08
2023-01-15T15:10:58.184Z,4.15
2023-01-15T15:15:04.749Z,4.27
2023-01-15T15:19:14.896Z,4.23
2023-01-15T15:23:22.284Z,4.27
2023-01-15T15:27:24.315Z,4.13
2023-01-15T15:31:27.255Z,4.12
2023-01-15T15:35:32.098Z,4.31
2023-01-15T15:39:41.065Z,4.29
2023-01-15T15:43:47.975Z,4.26
2023-01-15T15:47:49.428Z,4.26
2023-01-15T15:51:53.773Z,4.16
2023-01-15T15:55:57.867Z,4.05
2023-01-15T16:00:00.326Z,4.10
2023-01-15T16:04:02.937Z,3.96
2023-01-15T16:08:17.496Z,3.95
2023-01-15T16:12:19.372Z,3.87
2023-01-15T16:16:21.493Z,3.88
2023-01-15T16:20:23.376Z,3.80
2023-01-15T16:24:28.672Z,3.66
2023-01-15T16:28:38.319Z,3.61
2023-01-15T16:32:41.908Z,3.55
2023-01-15T16:36:43.358Z,3.64
2023-01-15T16:40:46.694Z,3.46
2023-01-15T16:44:52.510Z,3.46
2023-01-15T16:49:19.880Z,3.42
2023-01-15T16:53:39.959Z,3.35
2023-01-15T16:57:42.712Z,3.35
2023-01-15T17:01:45.906Z,3.45
2023-01-15T17:05:49.270Z,3.38
2023-01-15T17:09:53.158Z,3.34
2023-01-15T17:14:09.720Z,3.19
2023-01-15T17:18:28.456Z,3.10
2023-01-15T17:22:32.297Z,3.02
2023-01-15T17:26:34.185Z,2.94
2023-01-15T17:30:37.036Z,2.82
2023-01-15T17:34:38.486Z,2.85
2023-01-15T17:38:39.882Z,2.97
2023-01-15T17:42:41.332Z,3.04
2023-01-15T17:46:44.238Z,3.08
2023-01-15T17:50:45.723Z,3.01
2023-01-15T17:54:47.138Z,2.92
2023-01-15T17:58:48.707Z,2.89
2023-01-15T18:02:51.593Z,2.82
2023-01-15T18:06:55.980Z,2.77
2023-01-15T18:10:57.399Z,2.83
2023-01-15T18:14:58.784Z,3.00
2023-01-15T18:19:01.581Z,3.01
2023-01-15T18:23:02.987Z,3.15
2023-01-15T18:27:04.424Z,3.18
2023-01-15T18:31:06.722Z,3.31
2023-01-15T18:35:10.074Z,3.31
2023-01-15T18:39:11.510Z,3.14
2023-01-15T18:43:12.917Z,3.04
2023-01-15T18:47:16.116Z,3.06
2023-01-15T18:51:18.841Z,3.03
2023-01-15T18:55:22.052Z,2.83
2023-01-15T18:59:23.446Z,2.74
2023-01-15T19:03:24.850Z,2.75
2023-01-15T19:07:27.605Z,2.85
2023-01-15T19:11:29.407Z,2.81
2023-01-15T19:15:31.047Z,2.80
2023-01-15T19:19:32.485Z,2.86
2023-01-15T19:23:35.217Z,2.87
2023-01-15T19:27:36.619Z,2.72
2023-01-15T19:31:38.056Z,3.02
2023-01-15T19:35:39.493Z,3.13
2023-01-15T19:39:42.578Z,3.00
2023-01-15T19:43:43.994Z,3.03
2023-01-15T19:47:45.455Z,3.00
2023-01-15T19:51:46.855Z,2.94
2023-01-15T19:55:49.748Z,3.02
2023-01-15T19:59:51.186Z,3.13
2023-01-15T20:03:52.610Z,3.14
2023-01-15T20:07:54.255Z,3.12
2023-01-15T20:11:57.003Z,3.22
2023-01-15T20:15:58.657Z,3.32
2023-01-15T20:20:00.144Z,3.14
2023-01-15T20:24:01.592Z,3.17
2023-01-15T20:28:04.623Z,3.32
2023-01-15T20:32:06.112Z,3.28
2023-01-15T20:36:08.613Z,3.31
2023-01-15T20:40:11.326Z,3.46
2023-01-15T20:44:14.097Z,3.41
2023-01-15T20:48:15.513Z,3.44
2023-01-15T20:52:16.923Z,3.25
2023-01-15T20:56:18.703Z,3.27
2023-01-15T21:00:22.978Z,3.25
2023-01-15T21:04:24.459Z,3.29
2023-01-15T21:08:25.978Z,3.37
2023-01-15T21:12:27.376Z,3.17
2023-01-15T21:16:30.261Z,3.21
2023-01-15T21:20:31.705Z,3.26
2023-01-15T21:24:33.389Z,3.14
2023-01-15T21:28:34.804Z,3.28
2023-01-15T21:32:37.593Z,3.41
2023-01-15T21:36:38.994Z,3.37
2023-01-15T21:40:40.434Z,3.38
2023-01-15T21:44:42.003Z,3.19
2023-01-15T21:48:44.742Z,3.12
2023-01-15T21:52:46.329Z,3.07
2023-01-15T21:56:47.729Z,2.82
2023-01-15T22:00:49.185Z,2.87
2023-01-15T22:04:51.959Z,3.00
2023-01-15T22:08:53.855Z,3.11
2023-01-15T22:12:55.240Z,2.91
2023-01-15T22:16:58.795Z,3.09
2023-01-15T22:21:03.433Z,2.99
2023-01-15T22:25:05.789Z,2.99
2023-01-15T22:29:07.191Z,2.92
2023-01-15T22:33:08.600Z,2.69
2023-01-15T22:37:13.307Z,2.72
2023-01-15T22:41:14.713Z,2.68
2023-01-15T22:45:16.132Z,2.62
2023-01-15T22:49:17.531Z,2.56
2023-01-15T22:53:20.279Z,2.58
2023-01-15T22:57:21.993Z,2.73
2023-01-15T23:01:24.003Z,2.97
2023-01-15T23:05:25.680Z,3.08
2023-01-15T23:09:28.456Z,3.15
2023-01-15T23:13:30.824Z,3.20
2023-01-15T23:17:32.232Z,3.28
2023-01-15T23:21:33.872Z,3.22
2023-01-15T23:25:36.599Z,3.19
2023-01-15T23:29:50.219Z,3.19
2023-01-15T23:33:52.079Z,3.15
2023-01-15T23:37:53.478Z,3.06
2023-01-15T23:41:56.229Z,2.97
2023-01-15T23:45:57.714Z,2.98
2023-01-15T23:49:59.132Z,3.00
2023-01-15T23:54:01.485Z,2.98
2023-01-15T23:58:04.250Z,2.83
